createdAt,value
2022-12-07T00:02:17.868Z,17.93
2022-12-07T00:04:44.763Z,18.37
2022-12-07T00:07:10.979Z,18.10
2022-12-07T00:09:37.404Z,18.57
2022-12-07T00:12:03.863Z,17.90
2022-12-07T00:14:29.998Z,19.13
2022-12-07T00:16:56.251Z,18.47
2022-12-07T00:19:22.505Z,18.87
2022-12-07T00:21:49.274Z,19.77
2022-12-07T00:24:15.431Z,18.77
2022-12-07T00:26:42.163Z,19.00
2022-12-07T00:29:12.103Z,18.30
2022-12-07T00:31:39.084Z,19.50
2022-12-07T00:34:05.727Z,20.10
2022-12-07T00:36:32.039Z,20.13
2022-12-07T00:39:00.964Z,21.07
2022-12-07T00:41:28.746Z,20.10
2022-12-07T00:43:55.348Z,20.50
2022-12-07T00:46:22.788Z,21.60
2022-12-07T00:48:50.134Z,22.27
2022-12-07T00:51:17.547Z,23.67
2022-12-07T00:53:43.809Z,22.07
2022-12-07T00:56:12.711Z,22.67
2022-12-07T00:58:38.984Z,22.23
2022-12-07T01:01:06.882Z,20.70
2022-12-07T01:03:33.647Z,21.30
2022-12-07T01:06:00.126Z,22.33
2022-12-07T01:08:27.618Z,22.43
2022-12-07T01:10:59.115Z,22.33
2022-12-07T01:13:25.926Z,21.50
2022-12-07T01:15:52.059Z,21.80
2022-12-07T01:18:18.262Z,21.03
2022-12-07T01:20:44.368Z,21.13
2022-12-07T01:23:10.498Z,21.70
2022-12-07T01:25:36.671Z,21.37
2022-12-07T01:28:02.861Z,20.33
2022-12-07T01:30:29.710Z,20.63
2022-12-07T01:32:55.907Z,20.80
2022-12-07T01:35:22.094Z,20.73
2022-12-07T01:37:48.239Z,20.83
2022-12-07T01:40:14.393Z,21.23
2022-12-07T01:42:40.541Z,21.40
2022-12-07T01:45:38.114Z,21.10
2022-12-07T01:48:05.046Z,22.00
2022-12-07T01:50:32.143Z,21.87
2022-12-07T01:52:59.914Z,21.10
2022-12-07T01:55:26.136Z,20.63
2022-12-07T01:57:54.034Z,22.67
2022-12-07T02:00:20.697Z,21.27
2022-12-07T02:02:49.526Z,21.17
2022-12-07T02:05:16.887Z,20.00
2022-12-07T02:07:43.074Z,20.60
2022-12-07T02:10:13.890Z,20.33
2022-12-07T02:12:40.498Z,22.83
2022-12-07T02:15:07.556Z,19.93
2022-12-07T02:17:41.556Z,19.90
2022-12-07T02:20:21.086Z,20.27
2022-12-07T02:23:17.694Z,19.10
2022-12-07T02:25:58.762Z,20.13
2022-12-07T02:28:29.086Z,20.83
2022-12-07T02:30:59.185Z,20.80
2022-12-07T02:33:27.181Z,21.37
2022-12-07T02:35:58.983Z,21.13
2022-12-07T02:38:28.315Z,21.43
2022-12-07T02:40:56.882Z,20.57
2022-12-07T02:43:25.026Z,20.03
2022-12-07T02:45:51.884Z,21.03
2022-12-07T02:48:19.482Z,20.70
2022-12-07T02:50:46.406Z,21.17
2022-12-07T02:53:34.390Z,21.93
2022-12-07T02:56:03.739Z,20.07
2022-12-07T02:58:36.349Z,21.00
2022-12-07T03:01:09.804Z,22.23
2022-12-07T03:03:38.140Z,21.33
2022-12-07T03:06:12.122Z,20.37
2022-12-07T03:08:45.354Z,20.43
2022-12-07T03:11:18.975Z,21.20
2022-12-07T03:13:49.781Z,20.37
2022-12-07T03:16:17.259Z,19.13
2022-12-07T03:18:47.150Z,20.17
2022-12-07T03:21:15.815Z,19.37
2022-12-07T03:23:44.819Z,20.10
2022-12-07T03:26:13.350Z,20.00
2022-12-07T03:28:43.088Z,19.57
2022-12-07T03:31:13.686Z,20.83
2022-12-07T03:33:46.941Z,18.23
2022-12-07T03:36:18.119Z,18.93
2022-12-07T03:38:47.255Z,18.60
2022-12-07T03:41:17.991Z,18.07
2022-12-07T03:43:44.518Z,17.47
2022-12-07T03:46:18.452Z,17.47
2022-12-07T03:48:50.513Z,16.73
2022-12-07T03:51:21.783Z,16.73
2022-12-07T03:53:53.148Z,17.90
2022-12-07T03:56:20.236Z,16.83
2022-12-07T03:58:46.721Z,17.27
2022-12-07T04:01:12.877Z,17.50
2022-12-07T04:03:39.071Z,17.03
2022-12-07T04:06:06.375Z,17.73
2022-12-07T04:08:32.625Z,17.63
2022-12-07T04:10:58.796Z,16.40
2022-12-07T04:13:24.966Z,16.97
2022-12-07T04:15:51.244Z,16.37
2022-12-07T04:18:17.439Z,17.70
2022-12-07T04:20:43.586Z,16.20
2022-12-07T04:23:10.379Z,16.53
2022-12-07T04:25:36.550Z,16.23
2022-12-07T04:28:02.752Z,16.17
2022-12-07T04:30:28.968Z,15.83
2022-12-07T04:32:55.125Z,16.13
2022-12-07T04:35:21.306Z,15.20
2022-12-07T04:37:47.491Z,16.07
2022-12-07T04:40:14.588Z,16.27
2022-12-07T04:42:40.830Z,15.87
2022-12-07T04:45:08.451Z,16.20
2022-12-07T04:47:34.651Z,14.73
2022-12-07T04:50:01.198Z,15.97
2022-12-07T04:52:27.711Z,14.93
2022-12-07T04:54:54.486Z,15.00
2022-12-07T04:57:21.823Z,15.03
2022-12-07T04:59:48.452Z,13.83
2022-12-07T05:02:14.633Z,15.37
2022-12-07T05:04:40.920Z,14.67
2022-12-07T05:07:07.060Z,15.10
2022-12-07T05:09:33.426Z,14.93
2022-12-07T05:11:59.553Z,14.97
2022-12-07T05:14:26.518Z,13.43
2022-12-07T05:16:53.771Z,14.13
2022-12-07T05:19:20.465Z,13.67
2022-12-07T05:21:46.835Z,12.53
2022-12-07T05:24:15.066Z,13.37
2022-12-07T05:26:41.243Z,13.00
2022-12-07T05:29:07.456Z,12.80
2022-12-07T05:31:34.700Z,12.07
2022-12-07T05:34:00.962Z,12.33
2022-12-07T05:36:28.807Z,9.80
2022-12-07T05:38:55.044Z,19.13
2022-12-07T05:41:39.822Z,12.77
2022-12-07T05:44:06.185Z,9.40
2022-12-07T05:46:32.414Z,8.70
2022-12-07T05:48:59.199Z,9.90
2022-12-07T05:51:25.377Z,9.10
2022-12-07T05:53:51.548Z,9.23
2022-12-07T05:56:17.794Z,9.27
2022-12-07T05:59:01.379Z,9.53
2022-12-07T06:01:27.804Z,9.13
2022-12-07T06:03:54.339Z,9.47
2022-12-07T06:06:21.160Z,10.27
2022-12-07T06:08:47.486Z,9.30
2022-12-07T06:11:32.081Z,9.17
2022-12-07T06:13:58.338Z,9.20
2022-12-07T06:16:24.538Z,9.83
2022-12-07T06:18:50.753Z,9.10
2022-12-07T06:21:17.354Z,8.80
2022-12-07T06:23:44.253Z,8.83
2022-12-07T06:26:10.468Z,9.20
2022-12-07T06:28:36.622Z,9.20
2022-12-07T06:31:03.583Z,9.53
2022-12-07T06:33:29.964Z,9.50
2022-12-07T06:35:56.223Z,10.27
2022-12-07T06:38:22.423Z,9.17
2022-12-07T06:40:49.340Z,9.93
2022-12-07T06:43:15.487Z,9.97
2022-12-07T06:45:41.711Z,9.87
2022-12-07T06:48:07.970Z,9.63
2022-12-07T06:50:34.252Z,9.33
2022-12-07T06:53:00.463Z,9.70
2022-12-07T06:55:26.608Z,10.20
2022-12-07T06:57:53.391Z,10.30
2022-12-07T07:00:22.422Z,10.73
2022-12-07T07:02:48.842Z,10.67
2022-12-07T07:05:15.920Z,9.87
2022-12-07T07:08:12.957Z,10.47
2022-12-07T07:10:28.347Z,10.00
2022-12-07T07:12:57.439Z,10.13
2022-12-07T07:15:24.240Z,10.70
2022-12-07T07:17:50.441Z,10.40
2022-12-07T07:20:16.821Z,10.47
2022-12-07T07:22:42.944Z,9.93
2022-12-07T07:25:09.188Z,10.47
2022-12-07T07:27:35.311Z,10.80
2022-12-07T07:30:02.523Z,10.70
2022-12-07T07:32:28.949Z,10.33
2022-12-07T07:34:55.097Z,10.63
2022-12-07T07:37:22.158Z,10.70
2022-12-07T07:39:48.450Z,10.40
2022-12-07T07:42:15.191Z,10.63
2022-12-07T07:44:41.359Z,10.63
2022-12-07T07:47:08.227Z,9.20
2022-12-07T07:49:34.396Z,10.03
2022-12-07T07:52:00.545Z,9.63
2022-12-07T07:54:26.704Z,10.03
2022-12-07T07:56:52.985Z,10.50
2022-12-07T07:59:19.247Z,9.87
2022-12-07T08:01:45.448Z,10.50
2022-12-07T08:04:12.330Z,10.50
2022-12-07T08:06:38.434Z,10.80
2022-12-07T08:09:05.943Z,10.43
2022-12-07T08:11:32.063Z,10.43
2022-12-07T08:13:58.216Z,9.30
2022-12-07T08:16:24.535Z,9.23
2022-12-07T08:18:50.714Z,9.97
2022-12-07T08:21:17.601Z,9.43
2022-12-07T08:23:44.002Z,9.00
2022-12-07T08:26:12.288Z,8.77
2022-12-07T08:28:38.629Z,10.80
2022-12-07T08:31:06.846Z,9.77
2022-12-07T08:33:33.136Z,10.53
2022-12-07T08:36:01.085Z,9.30
2022-12-07T08:38:31.729Z,9.00
2022-12-07T08:40:59.067Z,9.43
2022-12-07T08:43:25.466Z,8.60
2022-12-07T08:45:55.736Z,8.60
2022-12-07T08:48:24.520Z,8.73
2022-12-07T08:50:51.210Z,14.37
2022-12-07T08:53:17.624Z,20.57
2022-12-07T08:55:45.164Z,11.97
2022-12-07T08:58:11.352Z,8.77
2022-12-07T09:00:37.554Z,8.33
2022-12-07T09:03:03.725Z,7.67
2022-12-07T09:05:30.074Z,7.70
2022-12-07T09:07:59.690Z,7.63
2022-12-07T09:10:26.153Z,8.10
2022-12-07T09:12:52.997Z,7.30
2022-12-07T09:15:19.098Z,7.80
2022-12-07T09:17:45.323Z,7.77
2022-12-07T09:20:12.215Z,7.60
2022-12-07T09:22:38.407Z,7.70
2022-12-07T09:25:05.835Z,7.90
2022-12-07T09:27:31.989Z,7.70
2022-12-07T09:29:58.743Z,7.80
2022-12-07T09:32:24.969Z,7.73
2022-12-07T09:34:51.249Z,6.60
2022-12-07T09:37:17.508Z,7.13
2022-12-07T09:39:49.846Z,7.43
2022-12-07T09:42:27.187Z,6.83
2022-12-07T09:44:53.462Z,7.93
2022-12-07T09:47:20.348Z,7.67
2022-12-07T09:49:46.491Z,6.57
2022-12-07T09:52:19.896Z,7.03
2022-12-07T09:54:47.758Z,7.27
2022-12-07T09:57:14.015Z,6.83
2022-12-07T09:59:40.655Z,6.90
2022-12-07T10:02:26.015Z,7.20
2022-12-07T10:04:52.190Z,7.00
2022-12-07T10:07:18.437Z,6.93
2022-12-07T10:09:44.590Z,6.93
2022-12-07T10:12:12.634Z,7.67
2022-12-07T10:17:33.603Z,7.13
2022-12-07T10:20:14.223Z,6.40
2022-12-07T10:22:55.325Z,7.03
2022-12-07T10:25:22.789Z,7.13
2022-12-07T10:27:58.597Z,6.13
2022-12-07T10:30:24.761Z,6.60
2022-12-07T10:32:51.648Z,6.70
2022-12-07T10:35:24.613Z,6.73
2022-12-07T10:37:52.430Z,6.63
2022-12-07T10:40:31.953Z,6.73
2022-12-07T10:43:03.381Z,6.20
2022-12-07T10:45:29.783Z,5.80
2022-12-07T10:48:00.653Z,6.07
2022-12-07T10:50:53.299Z,6.37
2022-12-07T10:53:44.987Z,6.10
2022-12-07T10:56:32.535Z,6.33
2022-12-07T10:59:10.621Z,6.10
2022-12-07T11:01:42.460Z,5.97
2022-12-07T11:04:18.771Z,6.43
2022-12-07T11:06:49.351Z,7.07
2022-12-07T11:10:06.962Z,6.33
2022-12-07T11:12:30.850Z,6.10
2022-12-07T11:15:01.302Z,5.03
2022-12-07T11:17:35.533Z,6.10
2022-12-07T11:20:13.060Z,6.03
2022-12-07T11:22:44.347Z,5.00
2022-12-07T11:25:23.210Z,5.27
2022-12-07T11:28:03.942Z,5.07
2022-12-07T11:30:34.928Z,4.13
2022-12-07T11:33:10.251Z,4.33
2022-12-07T11:35:48.703Z,4.60
2022-12-07T11:38:16.516Z,4.40
2022-12-07T11:40:46.094Z,4.40
2022-12-07T11:43:18.836Z,6.10
2022-12-07T11:45:48.334Z,4.73
2022-12-07T11:48:18.243Z,4.20
2022-12-07T11:50:47.779Z,4.70
2022-12-07T11:53:17.864Z,4.13
2022-12-07T11:55:47.023Z,4.30
2022-12-07T11:58:21.821Z,4.33
2022-12-07T12:00:49.214Z,4.27
2022-12-07T12:03:20.290Z,3.60
2022-12-07T12:05:47.280Z,4.70
2022-12-07T12:11:11.414Z,4.60
2022-12-07T12:17:16.926Z,4.60
2022-12-07T12:19:44.231Z,4.13
2022-12-07T12:22:15.803Z,4.90
2022-12-07T12:24:43.002Z,4.13
2022-12-07T12:27:15.577Z,5.00
2022-12-07T12:29:43.988Z,4.07
2022-12-07T12:32:15.950Z,4.07
2022-12-07T12:34:59.341Z,3.90
2022-12-07T12:37:45.072Z,3.67
2022-12-07T12:40:48.743Z,3.80
2022-12-07T12:43:52.583Z,3.27
2022-12-07T12:46:50.756Z,2.87
2022-12-07T12:49:44.854Z,3.43
2022-12-07T12:52:50.963Z,4.37
2022-12-07T12:55:21.547Z,4.27
2022-12-07T12:57:54.496Z,3.70
2022-12-07T13:00:23.735Z,3.93
2022-12-07T13:02:51.389Z,4.27
2022-12-07T13:05:20.343Z,3.60
2022-12-07T13:08:00.844Z,3.70
2022-12-07T13:10:40.198Z,3.97
2022-12-07T13:13:30.248Z,3.60
2022-12-07T13:16:31.294Z,3.67
2022-12-07T13:18:57.490Z,4.43
2022-12-07T13:21:43.150Z,4.20
2022-12-07T13:24:11.491Z,4.07
2022-12-07T13:26:40.363Z,4.00
2022-12-07T13:29:11.587Z,4.63
2022-12-07T13:31:39.323Z,4.20
2022-12-07T13:34:26.570Z,4.20
2022-12-07T13:36:52.807Z,3.70
2022-12-07T13:39:22.520Z,3.20
2022-12-07T13:41:52.251Z,2.90
2022-12-07T13:44:19.096Z,2.90
2022-12-07T13:47:00.115Z,2.70
2022-12-07T13:49:28.253Z,2.40
2022-12-07T13:51:55.083Z,3.23
2022-12-07T13:54:22.276Z,2.93
2022-12-07T13:56:51.713Z,3.47
2022-12-07T13:59:19.922Z,3.03
2022-12-07T14:01:48.081Z,3.60
2022-12-07T14:04:19.592Z,3.50
2022-12-07T14:06:50.793Z,3.20
2022-12-07T14:09:22.565Z,3.30
2022-12-07T14:11:50.161Z,3.60
2022-12-07T14:14:19.055Z,3.10
2022-12-07T14:16:56.880Z,2.83
2022-12-07T14:19:48.928Z,2.90
2022-12-07T14:22:33.837Z,2.63
2022-12-07T14:25:09.905Z,2.90
2022-12-07T14:27:36.410Z,2.80
2022-12-07T14:30:05.061Z,2.67
2022-12-07T14:32:31.984Z,2.40
2022-12-07T14:35:01.246Z,2.70
2022-12-07T14:37:28.467Z,3.20
2022-12-07T14:39:54.734Z,2.80
2022-12-07T14:42:21.024Z,2.80
2022-12-07T14:44:47.159Z,3.13
2022-12-07T14:50:03.211Z,3.30
2022-12-07T14:55:24.375Z,3.10
2022-12-07T14:57:50.776Z,3.30
2022-12-07T15:00:18.384Z,3.17
2022-12-07T15:02:45.835Z,4.50
2022-12-07T15:05:15.851Z,3.60
2022-12-07T15:07:43.448Z,3.63
2022-12-07T15:10:19.134Z,3.60
2022-12-07T15:12:48.450Z,4.43
2022-12-07T15:15:15.034Z,4.10
2022-12-07T15:17:41.327Z,4.10
2022-12-07T15:20:12.014Z,4.10
2022-12-07T15:22:38.684Z,4.10
2022-12-07T15:25:06.351Z,3.93
2022-12-07T15:27:32.748Z,3.83
2022-12-07T15:29:58.923Z,4.00
2022-12-07T15:32:25.101Z,4.40
2022-12-07T15:34:51.329Z,4.10
2022-12-07T15:37:18.100Z,4.37
2022-12-07T15:39:44.272Z,4.47
2022-12-07T15:42:10.411Z,4.30
2022-12-07T15:44:55.003Z,4.53
2022-12-07T15:47:21.158Z,4.33
2022-12-07T15:49:47.481Z,5.27
2022-12-07T15:52:13.676Z,6.33
2022-12-07T15:54:40.511Z,6.30
2022-12-07T15:57:06.688Z,6.50
2022-12-07T15:59:32.856Z,6.53
2022-12-07T16:01:59.609Z,6.27
2022-12-07T16:04:27.627Z,6.60
2022-12-07T16:06:53.822Z,7.33
2022-12-07T16:09:20.086Z,6.80
2022-12-07T16:11:46.992Z,5.77
2022-12-07T16:14:14.630Z,5.60
2022-12-07T16:16:41.860Z,6.23
2022-12-07T16:19:08.652Z,5.70
2022-12-07T16:21:35.767Z,5.70
2022-12-07T16:24:02.055Z,5.63
2022-12-07T16:26:28.328Z,4.93
2022-12-07T16:28:55.622Z,5.20
2022-12-07T16:31:23.071Z,4.80
2022-12-07T16:33:49.628Z,5.27
2022-12-07T16:36:18.592Z,5.23
2022-12-07T16:38:52.336Z,5.33
2022-12-07T16:41:18.505Z,4.97
2022-12-07T16:43:45.653Z,5.53
2022-12-07T16:46:13.348Z,5.07
2022-12-07T16:48:40.430Z,5.57
2022-12-07T16:51:08.728Z,5.70
2022-12-07T16:53:35.451Z,5.60
2022-12-07T16:56:02.215Z,5.90
2022-12-07T16:58:28.463Z,6.20
2022-12-07T17:00:54.890Z,6.30
2022-12-07T17:03:21.695Z,6.27
2022-12-07T17:05:48.927Z,7.00
2022-12-07T17:08:15.476Z,6.97
2022-12-07T17:10:43.136Z,7.37
2022-12-07T17:13:24.341Z,7.17
2022-12-07T17:15:58.372Z,6.93
2022-12-07T17:18:27.533Z,7.77
2022-12-07T17:20:53.758Z,7.37
2022-12-07T17:23:19.883Z,8.40
2022-12-07T17:25:46.063Z,8.77
2022-12-07T17:28:12.257Z,8.40
2022-12-07T17:30:38.731Z,8.27
2022-12-07T17:33:04.909Z,8.50
2022-12-07T17:35:31.698Z,9.10
2022-12-07T17:37:57.845Z,8.53
2022-12-07T17:40:23.992Z,9.30
2022-12-07T17:42:50.759Z,8.77
2022-12-07T17:45:17.284Z,9.73
2022-12-07T17:47:43.538Z,10.07
2022-12-07T17:50:10.392Z,10.20
2022-12-07T17:52:57.515Z,10.13
2022-12-07T17:55:23.879Z,10.70
2022-12-07T17:57:51.072Z,11.37
2022-12-07T18:00:18.710Z,11.87
2022-12-07T18:02:44.985Z,11.30
2022-12-07T18:05:11.327Z,12.03
2022-12-07T18:07:38.191Z,11.13
2022-12-07T18:10:06.680Z,11.80
2022-12-07T18:12:32.840Z,11.63
2022-12-07T18:14:58.975Z,11.53
2022-12-07T18:17:25.111Z,11.60
2022-12-07T18:19:51.317Z,12.53
2022-12-07T18:22:18.062Z,12.67
2022-12-07T18:24:44.877Z,13.70
2022-12-07T18:27:11.195Z,13.47
2022-12-07T18:29:37.349Z,13.63
2022-12-07T18:32:05.204Z,14.33
2022-12-07T18:34:31.431Z,14.50
2022-12-07T18:36:57.583Z,14.47
2022-12-07T18:39:27.166Z,14.47
2022-12-07T18:41:56.946Z,15.70
2022-12-07T18:44:24.269Z,14.70
2022-12-07T18:46:51.249Z,15.90
2022-12-07T18:49:17.996Z,15.97
2022-12-07T18:51:44.588Z,16.17
2022-12-07T18:54:11.010Z,15.70
2022-12-07T18:56:37.550Z,15.90
2022-12-07T18:59:23.525Z,15.60
2022-12-07T19:01:51.129Z,15.30
2022-12-07T19:04:17.606Z,14.60
2022-12-07T19:06:44.624Z,16.17
2022-12-07T19:09:12.122Z,16.03
2022-12-07T19:11:50.806Z,15.57
2022-12-07T19:14:22.733Z,14.80
2022-12-07T19:16:49.839Z,15.60
2022-12-07T19:19:17.169Z,15.30
2022-12-07T19:21:43.716Z,16.13
2022-12-07T19:24:10.167Z,15.10
2022-12-07T19:26:36.618Z,15.97
2022-12-07T19:29:03.141Z,16.43
2022-12-07T19:31:30.167Z,15.50
2022-12-07T19:33:56.792Z,14.87
2022-12-07T19:36:23.056Z,15.70
2022-12-07T19:38:49.859Z,15.97
2022-12-07T19:41:34.218Z,15.60
2022-12-07T19:44:01.527Z,15.30
2022-12-07T19:46:28.071Z,15.47
2022-12-07T19:48:56.143Z,16.73
2022-12-07T19:51:22.299Z,15.23
2022-12-07T19:53:48.755Z,15.80
2022-12-07T19:56:15.378Z,16.60
2022-12-07T19:58:42.781Z,15.70
2022-12-07T20:01:09.406Z,16.23
2022-12-07T20:03:35.719Z,16.50
2022-12-07T20:06:08.345Z,15.97
2022-12-07T20:08:34.794Z,15.87
2022-12-07T20:11:22.468Z,16.60
2022-12-07T20:13:48.351Z,16.93
2022-12-07T20:16:19.867Z,17.53
2022-12-07T20:18:46.567Z,17.17
2022-12-07T20:21:13.643Z,16.80
2022-12-07T20:23:40.095Z,17.43
2022-12-07T20:26:08.504Z,17.30
2022-12-07T20:28:34.967Z,18.03
2022-12-07T20:31:01.740Z,17.47
2022-12-07T20:33:29.257Z,18.33
2022-12-07T20:35:59.340Z,17.67
2022-12-07T20:38:27.131Z,17.97
2022-12-07T20:40:53.277Z,17.07
2022-12-07T20:43:19.283Z,17.37
2022-12-07T20:45:46.301Z,16.47
2022-12-07T20:48:13.175Z,18.07
2022-12-07T20:50:42.356Z,17.13
2022-12-07T20:53:09.381Z,18.23
2022-12-07T20:55:37.005Z,17.40
2022-12-07T20:58:03.219Z,16.97
2022-12-07T21:00:29.414Z,15.90
2022-12-07T21:02:56.333Z,18.00
2022-12-07T21:05:22.651Z,17.97
2022-12-07T21:07:48.919Z,16.63
2022-12-07T21:10:15.135Z,17.57
2022-12-07T21:12:42.059Z,18.17
2022-12-07T21:15:08.833Z,17.20
2022-12-07T21:17:35.276Z,17.73
2022-12-07T21:20:01.561Z,17.03
2022-12-07T21:22:27.672Z,16.67
2022-12-07T21:24:53.822Z,16.27
2022-12-07T21:27:20.110Z,17.33
2022-12-07T21:29:50.916Z,17.20
2022-12-07T21:32:20.321Z,17.40
2022-12-07T21:34:46.503Z,16.80
2022-12-07T21:37:12.768Z,17.07
2022-12-07T21:39:38.904Z,17.60
2022-12-07T21:42:05.123Z,18.07
2022-12-07T21:44:31.236Z,17.13
2022-12-07T21:46:59.579Z,17.67
2022-12-07T21:49:25.778Z,17.97
2022-12-07T21:51:51.958Z,16.97
2022-12-07T21:54:22.775Z,17.13
2022-12-07T21:56:51.728Z,17.33
2022-12-07T21:59:20.174Z,17.17
2022-12-07T22:01:47.645Z,16.63
2022-12-07T22:04:16.895Z,17.60
2022-12-07T22:06:43.822Z,17.57
2022-12-07T22:09:10.072Z,16.73
2022-12-07T22:11:36.324Z,15.50
2022-12-07T22:14:20.854Z,16.80
2022-12-07T22:16:47.022Z,17.07
2022-12-07T22:19:13.843Z,16.53
2022-12-07T22:21:40.314Z,17.60
2022-12-07T22:24:07.035Z,17.17
2022-12-07T22:26:33.740Z,16.63
2022-12-07T22:29:00.748Z,18.27
2022-12-07T22:31:27.686Z,16.03
2022-12-07T22:33:54.160Z,16.57
2022-12-07T22:36:20.996Z,17.70
2022-12-07T22:38:47.515Z,16.30
2022-12-07T22:41:18.316Z,16.27
2022-12-07T22:43:44.673Z,18.30
2022-12-07T22:46:10.888Z,16.17
2022-12-07T22:48:37.071Z,17.00
2022-12-07T22:51:03.489Z,16.87
2022-12-07T22:53:30.397Z,17.40
2022-12-07T22:55:56.629Z,17.30
2022-12-07T22:58:22.835Z,17.80
2022-12-07T23:00:49.113Z,16.47
2022-12-07T23:03:15.449Z,16.17
2022-12-07T23:05:41.990Z,16.30
2022-12-07T23:08:08.294Z,17.80
2022-12-07T23:10:35.202Z,16.70
2022-12-07T23:13:19.614Z,16.33
2022-12-07T23:15:45.912Z,16.60
2022-12-07T23:18:12.169Z,16.30
2022-12-07T23:20:38.451Z,17.23
2022-12-07T23:23:04.568Z,16.20
2022-12-07T23:25:32.218Z,16.17
2022-12-07T23:27:59.043Z,17.00
2022-12-07T23:30:25.185Z,15.03
2022-12-07T23:32:51.335Z,16.47
2022-12-07T23:35:17.732Z,15.33
2022-12-07T23:37:43.884Z,15.27
2022-12-07T23:40:10.129Z,15.57
2022-12-07T23:42:36.288Z,15.53
2022-12-07T23:45:03.956Z,16.17
2022-12-07T23:47:30.343Z,15.60
2022-12-07T23:49:56.490Z,15.63
2022-12-07T23:52:22.644Z,15.40
2022-12-07T23:54:48.791Z,16.00
2022-12-07T23:57:14.922Z,15.80
2022-12-07T23:59:41.071Z,15.50
